Time;durP1;ratioP1;P1;durP2;ratioP2;P2;SDS_P1;SDS_P2;PMS_P1;PMS_P2;Temp;Humidity;BMP_temperature;BMP_pressure;BME280_temperature;BME280_humidity;BME280_pressure;Samples;Min_cycle;Max_cycle;Signal;HPM_P1;HPM_P2
2021/04/21 00:02:19;;;;;;;23.77;16.83;;;7.80;99.90;;;;;;5042258;28;20970;-79
2021/04/21 00:04:48;;;;;;;22.30;16.17;;;7.80;99.90;;;;;;5045957;28;20201;-79
2021/04/21 00:07:16;;;;;;;21.13;15.37;;;7.80;99.90;;;;;;5046686;28;20202;-79
2021/04/21 00:09:43;;;;;;;22.90;15.87;;;7.80;99.90;;;;;;5045732;28;20264;-79
2021/04/21 00:12:10;;;;;;;21.20;16.03;;;7.80;99.90;;;;;;5046724;28;20213;-81
2021/04/21 00:14:37;;;;;;;19.50;14.57;;;7.70;99.90;;;;;;5045731;28;20213;-82
2021/04/21 00:17:05;;;;;;;22.40;15.73;;;7.70;99.90;;;;;;5045954;28;20594;-81
2021/04/21 00:19:34;;;;;;;21.63;16.17;;;7.70;99.90;;;;;;5045841;28;20886;-81
2021/04/21 00:22:04;;;;;;;24.53;17.10;;;7.70;99.90;;;;;;5045989;28;20233;-82
2021/04/21 00:24:32;;;;;;;23.40;16.60;;;7.70;99.90;;;;;;5045796;28;20668;-81
2021/04/21 00:26:59;;;;;;;25.00;16.87;;;7.60;99.90;;;;;;5046613;28;20955;-80
2021/04/21 00:29:27;;;;;;;26.60;17.97;;;7.60;99.90;;;;;;5045314;28;20201;-81
2021/04/21 00:31:56;;;;;;;24.77;16.27;;;7.60;99.90;;;;;;5046118;28;20206;-80
2021/04/21 00:34:24;;;;;;;23.00;15.33;;;7.50;99.90;;;;;;5045603;28;20194;-79
2021/04/21 00:36:55;;;;;;;24.77;15.37;;;7.50;99.90;;;;;;5045458;28;20248;-83
2021/04/21 00:39:23;;;;;;;20.37;13.50;;;7.40;99.90;;;;;;5046245;28;20202;-79
2021/04/21 00:41:59;;;;;;;21.30;14.10;;;7.40;99.90;;;;;;5044352;28;20264;-78
2021/04/21 00:44:33;;;;;;;15.77;11.17;;;7.40;99.90;;;;;;5044909;28;20248;-79
2021/04/21 00:47:05;;;;;;;19.20;13.40;;;7.30;99.90;;;;;;5045469;28;20602;-80
2021/04/21 00:49:40;;;;;;;18.47;12.00;;;7.30;99.90;;;;;;5044584;28;20778;-79
2021/04/21 00:52:12;;;;;;;18.57;12.70;;;7.30;99.90;;;;;;5045353;28;20320;-80
2021/04/21 00:54:49;;;;;;;20.93;13.73;;;7.30;99.90;;;;;;5045355;28;20183;-80
2021/04/21 00:57:23;;;;;;;18.10;12.83;;;7.20;99.90;;;;;;5045786;28;20283;-81
2021/04/21 00:59:58;;;;;;;22.30;13.07;;;7.20;99.90;;;;;;5046019;28;20655;-79
2021/04/21 01:02:30;;;;;;;18.47;12.57;;;7.20;99.90;;;;;;5045466;28;20225;-80
2021/04/21 01:04:59;;;;;;;20.33;14.00;;;7.10;99.90;;;;;;5045986;28;20590;-80
2021/04/21 01:07:28;;;;;;;20.70;14.53;;;7.10;99.90;;;;;;5045973;28;20209;-79
2021/04/21 01:09:58;;;;;;;19.27;12.80;;;7.10;99.90;;;;;;5046494;28;20511;-83
2021/04/21 01:12:27;;;;;;;23.47;14.47;;;7.10;99.90;;;;;;5044446;28;20526;-81
2021/04/21 01:14:55;;;;;;;22.10;15.80;;;7.10;99.90;;;;;;5046175;28;20205;-79
2021/04/21 01:17:23;;;;;;;24.40;17.23;;;7.10;99.90;;;;;;5045443;28;20209;-81
2021/04/21 01:20:10;;;;;;;29.10;18.17;;;7.10;99.90;;;;;;5045236;28;20201;-80
2021/04/21 01:22:57;;;;;;;26.07;18.77;;;7.00;99.90;;;;;;5064812;28;20270;-82
2021/04/21 01:25:30;;;;;;;28.93;20.47;;;7.00;99.90;;;;;;5065752;28;20209;-81
2021/04/21 01:28:01;;;;;;;25.30;20.17;;;7.10;99.90;;;;;;5065262;28;20209;-81
2021/04/21 01:30:30;;;;;;;32.00;22.43;;;7.10;99.90;;;;;;5057059;28;20205;-80
2021/04/21 01:33:00;;;;;;;33.97;24.73;;;7.00;99.90;;;;;;5045836;28;20197;-81
2021/04/21 01:35:28;;;;;;;34.67;26.10;;;7.10;99.90;;;;;;5045557;28;20703;-81
2021/04/21 01:37:58;;;;;;;34.20;25.50;;;7.10;99.90;;;;;;5040421;28;20245;-82
2021/04/21 01:40:29;;;;;;;35.37;28.27;;;7.10;99.90;;;;;;5057820;28;20279;-80
2021/04/21 01:42:58;;;;;;;36.10;27.33;;;7.10;99.90;;;;;;5044232;28;20232;-80
2021/04/21 01:45:28;;;;;;;36.47;27.53;;;7.10;99.90;;;;;;5044158;28;20645;-80
2021/04/21 01:47:59;;;;;;;42.80;29.70;;;7.10;99.90;;;;;;5044554;28;20209;-82
2021/04/21 01:50:26;;;;;;;35.67;27.23;;;7.10;99.90;;;;;;5044720;28;20226;-81
2021/04/21 01:53:02;;;;;;;35.57;28.33;;;7.10;99.90;;;;;;5055921;28;20197;-82
2021/04/21 01:55:39;;;;;;;31.47;26.27;;;7.00;99.90;;;;;;5064117;28;20518;-81
2021/04/21 01:58:18;;;;;;;39.23;30.37;;;7.00;99.90;;;;;;5055257;28;20328;-80
2021/04/21 02:00:50;;;;;;;43.53;31.17;;;7.00;99.90;;;;;;5043372;28;20209;-81
2021/04/21 02:03:19;;;;;;;42.13;32.47;;;7.00;99.90;;;;;;5042825;28;20927;-80
2021/04/21 02:06:04;;;;;;;40.87;30.80;;;7.00;99.90;;;;;;5043622;28;20275;-80
2021/04/21 02:08:38;;;;;;;43.63;34.27;;;7.00;99.90;;;;;;5043504;28;20241;-82
2021/04/21 02:11:14;;;;;;;42.03;32.43;;;7.00;99.90;;;;;;5044823;28;20213;-82
2021/04/21 02:13:56;;;;;;;39.27;32.60;;;7.00;99.90;;;;;;5044163;28;20193;-82
2021/04/21 02:16:27;;;;;;;42.87;32.93;;;7.00;99.90;;;;;;5083013;28;20200;-81
2021/04/21 02:19:06;;;;;;;36.13;29.47;;;7.00;99.90;;;;;;5065491;28;20228;-82
2021/04/21 02:21:39;;;;;;;38.23;30.23;;;7.00;99.90;;;;;;5057295;28;20605;-81
2021/04/21 02:24:23;;;;;;;35.50;28.33;;;7.00;99.90;;;;;;5063645;28;20201;-82
2021/04/21 02:26:56;;;;;;;33.20;28.17;;;6.90;99.90;;;;;;5062601;28;20248;-82
2021/04/21 02:29:29;;;;;;;34.57;26.70;;;6.90;99.90;;;;;;5063017;28;20616;-81
2021/04/21 02:32:09;;;;;;;33.43;27.60;;;6.90;99.90;;;;;;5046666;28;20989;-80
2021/04/21 02:34:44;;;;;;;30.53;26.67;;;6.90;99.90;;;;;;5043669;28;20210;-80
2021/04/21 02:37:16;;;;;;;33.43;27.83;;;6.90;99.90;;;;;;5043431;28;20213;-81
2021/04/21 02:39:51;;;;;;;30.80;26.73;;;6.80;99.90;;;;;;5043035;28;20235;-80
2021/04/21 02:42:27;;;;;;;33.73;28.03;;;6.80;99.90;;;;;;5042509;28;20229;-80
2021/04/21 02:45:00;;;;;;;31.80;27.00;;;6.80;99.90;;;;;;5042776;28;20202;-80
2021/04/21 02:47:37;;;;;;;31.93;26.03;;;6.80;99.90;;;;;;5041712;28;20605;-81
2021/04/21 02:50:08;;;;;;;31.87;25.67;;;6.70;99.90;;;;;;5041068;28;20237;-81
2021/04/21 02:52:50;;;;;;;31.43;26.47;;;6.70;99.90;;;;;;5041264;28;20278;-79
2021/04/21 02:55:27;;;;;;;36.43;29.30;;;6.70;99.90;;;;;;5042720;28;20197;-80
2021/04/21 02:58:04;;;;;;;31.93;25.20;;;6.70;99.90;;;;;;5042139;28;20185;-81
2021/04/21 03:00:34;;;;;;;36.30;25.80;;;6.60;99.90;;;;;;5042977;28;20208;-80
2021/04/21 03:03:21;;;;;;;31.50;25.90;;;6.60;99.90;;;;;;5042756;28;20287;-80
2021/04/21 03:05:51;;;;;;;31.27;25.13;;;6.60;99.90;;;;;;5042750;28;20202;-79
2021/04/21 03:08:22;;;;;;;31.43;25.13;;;6.60;99.90;;;;;;5042880;28;20252;-80
2021/04/21 03:10:54;;;;;;;33.73;27.97;;;6.60;99.90;;;;;;5042962;28;20208;-81
2021/04/21 03:13:25;;;;;;;36.43;28.83;;;6.50;99.90;;;;;;5040449;28;20202;-80
2021/04/21 03:15:56;;;;;;;39.00;31.13;;;6.50;99.90;;;;;;5041735;28;20550;-80
2021/04/21 03:18:27;;;;;;;32.97;26.27;;;6.50;99.90;;;;;;5042212;28;20217;-81
2021/04/21 03:20:57;;;;;;;33.10;26.37;;;6.50;99.90;;;;;;5041852;28;20837;-79
2021/04/21 03:23:25;;;;;;;34.50;29.17;;;6.40;99.90;;;;;;5041654;28;20233;-80
2021/04/21 03:25:54;;;;;;;42.17;32.67;;;6.40;99.90;;;;;;5041499;28;20202;-80
2021/04/21 03:28:22;;;;;;;41.17;30.23;;;6.40;99.90;;;;;;5041864;28;20259;-80
2021/04/21 03:30:51;;;;;;;39.00;29.90;;;6.40;99.90;;;;;;5042148;28;20209;-81
2021/04/21 03:33:22;;;;;;;37.00;29.20;;;6.30;99.90;;;;;;5039913;28;20202;-81
2021/04/21 03:35:52;;;;;;;39.77;29.20;;;6.30;99.90;;;;;;5043009;28;20198;-80
2021/04/21 03:38:21;;;;;;;39.97;30.23;;;6.30;99.90;;;;;;5062062;28;20205;-80
2021/04/21 03:40:48;;;;;;;38.13;27.87;;;6.30;99.90;;;;;;5052653;28;20210;-81
2021/04/21 03:43:15;;;;;;;38.77;28.77;;;6.20;99.90;;;;;;5042438;28;20291;-81
2021/04/21 03:45:46;;;;;;;41.63;31.60;;;6.30;99.90;;;;;;5041697;28;20899;-80
2021/04/21 03:48:15;;;;;;;44.37;32.10;;;6.20;99.90;;;;;;5041924;28;20206;-79
2021/04/21 03:50:42;;;;;;;46.40;32.90;;;6.20;99.90;;;;;;5041756;28;20310;-80
2021/04/21 03:53:13;;;;;;;48.00;33.43;;;6.20;99.90;;;;;;5041833;28;20197;-80
2021/04/21 03:55:39;;;;;;;43.27;31.27;;;6.20;99.90;;;;;;5041662;28;20263;-81
2021/04/21 03:58:07;;;;;;;43.20;31.60;;;6.20;99.90;;;;;;5041665;28;20218;-80
2021/04/21 04:00:36;;;;;;;41.17;29.73;;;6.20;99.90;;;;;;5041819;28;20202;-81
2021/04/21 04:03:05;;;;;;;42.30;33.33;;;6.10;99.90;;;;;;5042357;28;20554;-81
2021/04/21 04:05:38;;;;;;;44.73;32.83;;;6.10;99.90;;;;;;5042408;28;20213;-82
2021/04/21 04:08:08;;;;;;;44.00;31.13;;;6.10;99.90;;;;;;5042273;28;20261;-80
2021/04/21 04:10:40;;;;;;;39.00;28.80;;;6.00;99.90;;;;;;5041699;28;20340;-80
2021/04/21 04:13:12;;;;;;;33.77;26.40;;;6.00;99.90;;;;;;5041875;28;20319;-81
2021/04/21 04:15:39;;;;;;;36.87;28.43;;;6.00;99.90;;;;;;5041640;28;20233;-82
2021/04/21 04:18:07;;;;;;;38.90;26.87;;;6.00;99.90;;;;;;5041991;28;20492;-80
2021/04/21 04:20:34;;;;;;;35.83;26.77;;;6.00;99.90;;;;;;5042468;28;20278;-79
2021/04/21 04:23:05;;;;;;;37.50;26.00;;;6.00;99.90;;;;;;5041783;28;20222;-81
2021/04/21 04:25:34;;;;;;;39.20;26.60;;;6.00;99.90;;;;;;5042440;28;20328;-81
2021/04/21 04:28:02;;;;;;;37.57;27.03;;;5.90;99.90;;;;;;5041977;28;20206;-79
2021/04/21 04:30:29;;;;;;;37.27;27.17;;;5.90;99.90;;;;;;5041003;28;20264;-80
2021/04/21 04:32:59;;;;;;;38.27;27.70;;;5.90;99.90;;;;;;5041275;28;20854;-80
2021/04/21 04:35:26;;;;;;;35.80;26.13;;;5.90;99.90;;;;;;5042018;28;20225;-80
2021/04/21 04:37:57;;;;;;;38.67;28.20;;;5.90;99.90;;;;;;5040869;28;20198;-79
2021/04/21 04:40:24;;;;;;;37.03;27.77;;;5.90;99.90;;;;;;5041355;28;20209;-80
2021/04/21 04:42:51;;;;;;;43.43;31.07;;;5.90;99.90;;;;;;5044537;28;20229;-80
2021/04/21 04:45:21;;;;;;;50.37;33.07;;;5.90;99.90;;;;;;5061450;28;20307;-80
2021/04/21 04:47:50;;;;;;;43.57;31.90;;;5.90;99.90;;;;;;5061179;28;20205;-80
2021/04/21 04:50:18;;;;;;;47.00;34.03;;;5.90;99.90;;;;;;5053007;28;20288;-79
2021/04/21 04:52:46;;;;;;;50.27;35.03;;;5.90;99.90;;;;;;5044888;28;20244;-79
2021/04/21 04:55:15;;;;;;;48.60;33.03;;;5.90;99.90;;;;;;5044519;28;20206;-80
2021/04/21 04:57:45;;;;;;;53.00;34.30;;;6.00;99.90;;;;;;5043526;28;20210;-80
2021/04/21 05:00:13;;;;;;;51.97;35.13;;;6.00;99.90;;;;;;5044230;28;20209;-81
2021/04/21 05:02:44;;;;;;;54.73;36.67;;;6.10;99.90;;;;;;5043974;28;20221;-80
2021/04/21 05:05:11;;;;;;;60.93;43.30;;;6.20;99.90;;;;;;5043635;28;20677;-80
2021/04/21 05:07:43;;;;;;;66.63;42.80;;;6.40;99.90;;;;;;5043366;28;20241;-81
2021/04/21 05:10:17;;;;;;;83.13;47.57;;;6.60;99.90;;;;;;5043877;28;20201;-79
2021/04/21 05:12:44;;;;;;;84.27;47.13;;;6.80;99.90;;;;;;5043304;28;20219;-81
2021/04/21 05:16:11;;;;;;;83.10;48.33;;;6.90;99.90;;;;;;5043267;28;20273;-80
2021/04/21 05:19:09;;;;;;;88.63;50.00;;;7.10;99.90;;;;;;5043388;28;20251;-80
2021/04/21 05:22:13;;;;;;;91.80;52.60;;;7.20;99.90;;;;;;5044090;28;20884;-80
2021/04/21 05:25:26;;;;;;;77.47;48.63;;;7.30;99.90;;;;;;5064194;28;20212;-79
2021/04/21 05:28:31;;;;;;;78.73;50.07;;;7.40;99.90;;;;;;5064566;28;20216;-80
2021/04/21 05:31:15;;;;;;;74.83;51.23;;;7.50;99.90;;;;;;5063223;28;20197;-80
2021/04/21 05:34:19;;;;;;;71.73;52.73;;;7.60;99.90;;;;;;5042571;28;20220;-80
2021/04/21 05:37:21;;;;;;;75.63;52.83;;;7.70;99.90;;;;;;5045065;28;20271;-80
2021/04/21 05:40:24;;;;;;;78.93;55.07;;;7.90;99.90;;;;;;5044237;28;20259;-80
2021/04/21 05:43:31;;;;;;;71.80;51.03;;;8.00;99.90;;;;;;5044267;28;20218;-81
2021/04/21 05:46:36;;;;;;;71.33;50.53;;;8.00;99.90;;;;;;5042489;28;20680;-81
2021/04/21 05:49:34;;;;;;;71.43;46.77;;;8.10;99.90;;;;;;5043650;28;20217;-80
2021/04/21 05:52:10;;;;;;;65.10;42.43;;;8.30;99.90;;;;;;5043986;28;20202;-81
2021/04/21 05:55:18;;;;;;;62.47;41.70;;;8.30;99.90;;;;;;5042860;28;20306;-80
2021/04/21 05:58:21;;;;;;;59.20;39.50;;;8.50;99.90;;;;;;5043905;28;20201;-81
2021/04/21 06:01:20;;;;;;;61.43;40.10;;;8.70;99.90;;;;;;5044037;28;20205;-79
2021/04/21 06:03:50;;;;;;;64.00;40.40;;;8.80;99.90;;;;;;5043605;28;20535;-80
2021/04/21 06:06:17;;;;;;;63.67;42.43;;;8.90;99.90;;;;;;5043495;28;20730;-80
2021/04/21 06:08:43;;;;;;;64.27;41.93;;;9.00;99.90;;;;;;5042860;28;20240;-81
2021/04/21 06:11:21;;;;;;;60.60;39.77;;;9.10;99.90;;;;;;5043980;28;20559;-85
2021/04/21 06:13:51;;;;;;;57.80;39.47;;;9.20;99.90;;;;;;5045336;28;20292;-82
2021/04/21 06:16:18;;;;;;;61.93;38.93;;;9.40;99.90;;;;;;5044767;28;20543;-82
2021/04/21 06:18:51;;;;;;;61.00;38.57;;;9.40;99.90;;;;;;5045769;28;20253;-82
2021/04/21 06:21:19;;;;;;;57.77;38.13;;;9.40;99.90;;;;;;5045057;28;20194;-82
2021/04/21 06:23:46;;;;;;;57.73;37.57;;;9.50;99.90;;;;;;5044932;28;20245;-81
2021/04/21 06:26:19;;;;;;;58.03;36.10;;;9.60;99.90;;;;;;5045717;28;20216;-84
2021/04/21 06:28:56;;;;;;;58.47;36.70;;;9.60;99.90;;;;;;5044579;28;20622;-82
2021/04/21 06:31:32;;;;;;;58.27;35.47;;;9.50;99.90;;;;;;5045452;28;20190;-81
2021/04/21 06:33:58;;;;;;;54.17;35.43;;;9.60;99.90;;;;;;5045058;28;20505;-81
2021/04/21 06:36:37;;;;;;;50.80;32.70;;;9.60;99.90;;;;;;5044357;28;20208;-83
2021/04/21 06:39:04;;;;;;;50.87;32.57;;;9.70;99.90;;;;;;5044671;28;20209;-80
2021/04/21 06:41:31;;;;;;;49.33;32.27;;;9.70;99.90;;;;;;5044369;28;20210;-81
2021/04/21 06:43:57;;;;;;;54.40;33.50;;;9.70;99.90;;;;;;5045384;28;20198;-82
2021/04/21 06:46:24;;;;;;;51.93;33.00;;;9.70;99.90;;;;;;5045181;28;20544;-80
2021/04/21 06:48:54;;;;;;;60.70;36.03;;;9.60;99.90;;;;;;5055812;28;20291;-81
2021/04/21 06:51:23;;;;;;;49.60;31.53;;;9.60;99.90;;;;;;5086326;28;20196;-82
2021/04/21 06:53:52;;;;;;;58.37;31.57;;;9.60;99.90;;;;;;5085922;28;20558;-81
2021/04/21 06:56:25;;;;;;;52.63;31.20;;;9.60;99.90;;;;;;5081835;28;20243;-82
2021/04/21 06:58:51;;;;;;;57.27;32.90;;;9.70;99.90;;;;;;5078771;28;20331;-84
2021/04/21 07:01:24;;;;;;;59.20;33.83;;;9.70;99.90;;;;;;5065275;28;20201;-81
2021/04/21 07:07:50;;;;;;;50.33;30.03;;;9.80;99.90;;;;;;4982566;28;20605;-83
2021/04/21 07:10:18;;;;;;;49.40;30.60;;;9.80;99.90;;;;;;5065033;28;20343;-81
2021/04/21 07:12:46;;;;;;;57.23;30.30;;;9.70;99.90;;;;;;5063667;28;20520;-80
2021/04/21 07:15:13;;;;;;;52.43;29.53;;;9.70;99.90;;;;;;5065210;28;20204;-80
2021/04/21 07:17:40;;;;;;;56.27;29.83;;;9.70;99.90;;;;;;5057183;28;20301;-82
2021/04/21 07:20:08;;;;;;;52.93;30.27;;;9.70;99.90;;;;;;5043674;28;20198;-80
2021/04/21 07:22:35;;;;;;;48.27;27.33;;;9.60;99.90;;;;;;5043507;28;20534;-83
2021/04/21 07:25:04;;;;;;;50.77;28.50;;;9.60;99.90;;;;;;5019487;28;20233;-81
2021/04/21 07:27:32;;;;;;;47.50;28.27;;;9.70;99.90;;;;;;5045447;28;20213;-82
2021/04/21 07:29:58;;;;;;;44.90;27.40;;;9.60;99.90;;;;;;5045631;28;20306;-82
2021/04/21 07:32:26;;;;;;;50.43;27.67;;;9.50;99.90;;;;;;5047036;28;20210;-80
2021/04/21 07:35:00;;;;;;;46.93;28.33;;;9.40;99.90;;;;;;5050241;28;20202;-80
2021/04/21 07:37:34;;;;;;;42.00;26.83;;;9.40;99.90;;;;;;5045154;28;20197;-82
2021/04/21 07:40:01;;;;;;;44.57;26.53;;;9.50;99.90;;;;;;5057236;28;20200;-84
2021/04/21 07:42:33;;;;;;;42.33;26.47;;;9.40;99.90;;;;;;5066537;28;20221;-83
2021/04/21 07:45:01;;;;;;;42.97;26.93;;;9.20;99.90;;;;;;5063134;28;20194;-82
2021/04/21 07:47:35;;;;;;;38.17;25.63;;;9.10;99.90;;;;;;5044576;28;20202;-82
2021/04/21 07:50:03;;;;;;;37.17;25.43;;;9.10;99.90;;;;;;5045698;28;20313;-82
2021/04/21 07:52:31;;;;;;;38.33;23.93;;;9.10;99.90;;;;;;5064381;28;20209;-82
2021/04/21 07:55:09;;;;;;;42.23;24.50;;;9.20;99.90;;;;;;5064722;28;20540;-85
2021/04/21 07:57:36;;;;;;;40.57;24.47;;;9.30;99.90;;;;;;5065302;28;20201;-82
2021/04/21 08:00:05;;;;;;;38.07;24.77;;;9.30;99.90;;;;;;5064904;28;20201;-82
2021/04/21 08:02:35;;;;;;;38.77;24.60;;;9.30;99.90;;;;;;5047538;28;20367;-83
2021/04/21 08:05:06;;;;;;;40.93;28.27;;;9.40;99.90;;;;;;5065185;28;20533;-83
2021/04/21 08:07:39;;;;;;;37.33;25.67;;;9.40;99.90;;;;;;5064779;28;20260;-82
2021/04/21 08:10:09;;;;;;;38.20;24.93;;;9.40;99.90;;;;;;5064483;28;20241;-84
2021/04/21 08:12:37;;;;;;;42.80;26.63;;;9.50;99.90;;;;;;5064958;28;20757;-81
2021/04/21 08:15:08;;;;;;;44.23;26.83;;;9.50;99.90;;;;;;5065501;28;20776;-80
2021/04/21 08:17:51;;;;;;;41.83;26.33;;;9.50;99.90;;;;;;5049689;28;20216;-82
2021/04/21 08:20:24;;;;;;;43.03;27.07;;;9.60;99.90;;;;;;5043038;28;20195;-84
2021/04/21 08:22:54;;;;;;;38.93;27.30;;;9.60;99.90;;;;;;5044758;28;20673;-81
2021/04/21 08:25:20;;;;;;;46.67;27.00;;;9.60;99.90;;;;;;5048307;28;20206;-80
2021/04/21 08:27:46;;;;;;;40.37;26.17;;;9.70;99.90;;;;;;5047839;28;20255;-81
2021/04/21 08:30:15;;;;;;;42.50;25.83;;;9.70;99.90;;;;;;5048434;28;20220;-80
2021/04/21 08:32:42;;;;;;;36.83;25.30;;;9.80;99.90;;;;;;5053528;28;20844;-83
2021/04/21 08:35:10;;;;;;;38.53;25.70;;;9.90;99.90;;;;;;5067991;28;20289;-82
2021/04/21 08:37:37;;;;;;;35.67;23.90;;;10.00;99.90;;;;;;5068891;28;20308;-83
2021/04/21 08:40:03;;;;;;;31.90;22.13;;;10.00;99.90;;;;;;5069158;28;20205;-81
2021/04/21 08:42:31;;;;;;;35.10;22.07;;;10.10;99.90;;;;;;5069075;28;20297;-84
2021/04/21 08:44:58;;;;;;;30.00;20.57;;;10.10;99.90;;;;;;5057424;28;20202;-83
2021/04/21 08:47:26;;;;;;;27.90;16.80;;;10.10;99.90;;;;;;5046111;28;20594;-84
2021/04/21 08:49:54;;;;;;;23.43;15.60;;;10.10;99.90;;;;;;5046629;28;20259;-81
2021/04/21 08:52:24;;;;;;;20.67;14.77;;;10.20;99.90;;;;;;5046193;28;20194;-83
2021/04/21 08:54:54;;;;;;;19.77;13.53;;;10.20;99.90;;;;;;5047932;28;20316;-81
2021/04/21 08:57:20;;;;;;;20.73;14.17;;;10.30;99.90;;;;;;5048220;28;20506;-85
2021/04/21 08:59:47;;;;;;;16.83;12.70;;;10.30;99.90;;;;;;5061495;28;20239;-80
2021/04/21 09:02:15;;;;;;;14.57;11.30;;;10.40;99.90;;;;;;5068147;28;20602;-82
2021/04/21 09:04:43;;;;;;;16.20;9.93;;;10.60;99.90;;;;;;5067350;28;20217;-83
2021/04/21 09:07:11;;;;;;;14.77;9.00;;;10.60;99.90;;;;;;5066725;28;20236;-85
2021/04/21 09:09:38;;;;;;;12.87;9.13;;;10.60;99.90;;;;;;5066892;28;20863;-80
2021/04/21 09:12:07;;;;;;;9.80;8.67;;;10.60;99.90;;;;;;5065912;28;20592;-84
2021/04/21 09:14:34;;;;;;;14.70;7.73;;;10.70;99.90;;;;;;5065959;28;20212;-82
2021/04/21 09:17:00;;;;;;;15.43;7.30;;;10.80;99.90;;;;;;5049525;28;20406;-86
2021/04/21 09:19:27;;;;;;;8.63;5.40;;;10.80;99.90;;;;;;5045375;28;20293;-80
2021/04/21 09:22:11;;;;;;;11.17;4.63;;;10.90;99.90;;;;;;5045561;28;20208;-84
2021/04/21 09:24:38;;;;;;;8.03;3.30;;;11.10;99.90;;;;;;5045110;28;20260;-80
2021/04/21 09:27:31;;;;;;;9.10;3.20;;;11.20;99.90;;;;;;5046335;28;20206;-81
2021/04/21 09:30:12;;;;;;;7.37;2.83;;;11.30;99.90;;;;;;5045386;28;20241;-80
2021/04/21 09:32:45;;;;;;;5.10;2.27;;;11.50;99.90;;;;;;5044169;28;20194;-84
2021/04/21 09:35:22;;;;;;;8.40;3.03;;;12.00;99.90;;;;;;5044516;28;20549;-82
2021/04/21 09:37:52;;;;;;;6.53;2.33;;;12.20;99.90;;;;;;5045350;28;20190;-81
2021/04/21 09:40:40;;;;;;;15.70;3.87;;;12.30;99.90;;;;;;5046463;28;20212;-80
2021/04/21 09:43:09;;;;;;;9.80;2.50;;;12.40;99.90;;;;;;5041110;28;20214;-80
2021/04/21 09:45:38;;;;;;;4.73;2.00;;;12.40;99.90;;;;;;5044307;28;20631;-79
2021/04/21 09:48:07;;;;;;;9.60;2.27;;;12.20;99.90;;;;;;5044223;28;20546;-80
2021/04/21 09:50:35;;;;;;;4.57;1.80;;;12.30;99.90;;;;;;5043975;28;20878;-80
2021/04/21 09:53:23;;;;;;;3.57;1.27;;;12.30;99.90;;;;;;5045459;28;20313;-80
2021/04/21 09:56:11;;;;;;;4.80;1.80;;;12.20;99.90;;;;;;5043404;28;20232;-79
2021/04/21 09:58:39;;;;;;;4.33;1.70;;;12.30;99.90;;;;;;5044961;28;20226;-84
2021/04/21 10:01:24;;;;;;;4.93;1.50;;;12.70;99.90;;;;;;5046752;28;20216;-82
2021/04/21 10:04:09;;;;;;;8.00;1.50;;;13.10;99.90;;;;;;5047143;28;20233;-83
2021/04/21 10:06:37;;;;;;;4.03;1.83;;;13.20;99.90;;;;;;5045667;28;20210;-82
2021/04/21 10:09:05;;;;;;;8.37;1.60;;;13.40;99.90;;;;;;5047388;28;20244;-83
2021/04/21 10:11:31;;;;;;;7.77;1.47;;;13.50;99.90;;;;;;5046606;28;20201;-84
2021/04/21 10:13:58;;;;;;;7.57;1.73;;;13.40;99.90;;;;;;5047534;28;20198;-83
2021/04/21 10:16:25;;;;;;;5.20;1.27;;;13.50;99.90;;;;;;5045281;28;20202;-82
2021/04/21 10:18:52;;;;;;;14.63;2.80;;;13.50;99.90;;;;;;5044923;28;20609;-80
2021/04/21 10:21:20;;;;;;;8.47;2.00;;;13.30;99.90;;;;;;5046199;28;20214;-80
2021/04/21 10:23:48;;;;;;;7.50;1.67;;;13.30;99.90;;;;;;5044386;28;20645;-83
2021/04/21 10:26:17;;;;;;;7.37;1.90;;;13.30;99.90;;;;;;5043366;28;20202;-79
2021/04/21 10:28:46;;;;;;;5.97;1.90;;;13.40;99.90;;;;;;5045191;28;20221;-82
2021/04/21 10:31:14;;;;;;;9.67;1.77;;;13.50;99.90;;;;;;5044010;28;20325;-80
2021/04/21 10:33:41;;;;;;;7.77;1.57;;;13.60;99.90;;;;;;5043513;28;20202;-82
2021/04/21 10:36:09;;;;;;;5.93;1.40;;;13.70;99.90;;;;;;5043321;28;20206;-79
2021/04/21 10:38:37;;;;;;;5.47;2.23;;;13.80;99.90;;;;;;5069694;28;20498;-82
2021/04/21 10:41:25;;;;;;;5.00;1.50;;;14.00;99.90;;;;;;5082635;28;20748;-82
2021/04/21 10:44:07;;;;;;;12.00;2.00;;;14.10;99.90;;;;;;5054034;28;20693;-81
2021/04/21 10:47:04;;;;;;;5.53;1.77;;;14.10;99.90;;;;;;5042720;28;20243;-81
2021/04/21 10:49:55;;;;;;;9.03;1.87;;;14.30;99.90;;;;;;5043218;28;20255;-83
2021/04/21 10:52:32;;;;;;;10.37;3.20;;;14.30;99.90;;;;;;5043820;28;20327;-80
2021/04/21 10:55:00;;;;;;;8.80;2.63;;;14.40;99.90;;;;;;5043812;28;20208;-79
2021/04/21 10:57:30;;;;;;;8.80;2.10;;;14.40;99.90;;;;;;5043090;28;20205;-82
2021/04/21 11:00:11;;;;;;;6.60;1.90;;;14.40;99.90;;;;;;5044815;28;20324;-81
2021/04/21 11:02:48;;;;;;;6.90;1.97;;;14.10;99.90;;;;;;5042778;28;20257;-87
2021/04/21 11:05:17;;;;;;;11.47;2.77;;;13.70;99.90;;;;;;5055767;28;20212;-85
2021/04/21 11:07:47;;;;;;;9.90;2.43;;;13.70;99.90;;;;;;5062123;28;20205;-80
2021/04/21 11:10:35;;;;;;;7.07;2.10;;;13.70;99.90;;;;;;5060788;28;20225;-78
2021/04/21 11:13:05;;;;;;;8.00;2.17;;;14.00;99.90;;;;;;5063113;28;20288;-79
2021/04/21 11:15:39;;;;;;;12.03;2.07;;;14.10;99.90;;;;;;5045030;28;20223;-82
2021/04/21 11:18:25;;;;;;;7.70;1.97;;;13.90;99.90;;;;;;5040642;28;20198;-80
2021/04/21 11:20:57;;;;;;;10.20;2.50;;;14.00;99.90;;;;;;5041374;28;20208;-85
2021/04/21 11:24:00;;;;;;;7.87;2.53;;;14.00;99.90;;;;;;5042262;28;20216;-81
2021/04/21 11:26:35;;;;;;;9.40;1.90;;;14.00;99.90;;;;;;5040539;28;20213;-81
2021/04/21 11:29:05;;;;;;;9.63;2.93;;;14.00;99.90;;;;;;5041616;28;20515;-81
2021/04/21 11:32:09;;;;;;;11.97;2.20;;;14.20;99.90;;;;;;5042626;28;20212;-81
2021/04/21 11:34:37;;;;;;;8.03;2.30;;;14.20;99.90;;;;;;5043971;28;20213;-79
2021/04/21 11:37:04;;;;;;;6.03;2.03;;;14.10;99.90;;;;;;5042818;28;20220;-82
2021/04/21 11:40:03;;;;;;;7.97;2.17;;;14.00;99.90;;;;;;5042402;28;20252;-81
2021/04/21 11:42:41;;;;;;;10.27;2.17;;;14.00;99.90;;;;;;5042105;28;20530;-82
2021/04/21 11:45:29;;;;;;;5.03;1.70;;;13.80;99.90;;;;;;5041764;28;20234;-81
2021/04/21 11:48:16;;;;;;;9.87;2.30;;;13.70;99.90;;;;;;5039120;28;20264;-80
2021/04/21 11:50:44;;;;;;;6.33;2.30;;;13.70;99.90;;;;;;5037593;28;20209;-80
2021/04/21 11:53:15;;;;;;;9.97;2.23;;;13.90;99.90;;;;;;5042666;28;20941;-83
2021/04/21 11:55:51;;;;;;;10.53;3.47;;;14.10;99.90;;;;;;5045487;28;20213;-84
2021/04/21 11:58:20;;;;;;;11.77;2.40;;;14.20;99.90;;;;;;5067548;28;20247;-80
2021/04/21 12:00:50;;;;;;;11.60;2.90;;;14.10;99.90;;;;;;5050818;28;20202;-83
2021/04/21 12:03:19;;;;;;;9.07;3.00;;;14.10;99.90;;;;;;5049804;28;20705;-81
2021/04/21 12:05:47;;;;;;;13.93;3.60;;;14.10;99.90;;;;;;5065657;28;20207;-83
2021/04/21 12:08:17;;;;;;;8.53;2.47;;;14.10;99.90;;;;;;5066287;28;20201;-83
2021/04/21 12:10:44;;;;;;;11.40;3.37;;;14.10;99.90;;;;;;5050659;28;20547;-80
2021/04/21 12:13:32;;;;;;;11.53;2.90;;;14.20;99.90;;;;;;5063606;28;20193;-82
2021/04/21 12:16:08;;;;;;;8.07;2.47;;;14.50;99.90;;;;;;5060494;28;20279;-81
2021/04/21 12:18:37;;;;;;;12.50;2.37;;;14.40;99.90;;;;;;5046489;28;20209;-82
2021/04/21 12:21:20;;;;;;;12.30;3.03;;;14.40;99.90;;;;;;5045649;28;20224;-81
2021/04/21 12:23:47;;;;;;;7.47;2.60;;;14.30;99.90;;;;;;5045507;28;20257;-79
2021/04/21 12:26:17;;;;;;;9.07;3.07;;;14.20;99.90;;;;;;5046943;28;20205;-79
2021/04/21 12:28:46;;;;;;;10.90;2.63;;;14.10;99.90;;;;;;5048000;28;20202;-81
2021/04/21 12:31:13;;;;;;;16.13;3.00;;;14.30;99.90;;;;;;5045190;28;20920;-83
2021/04/21 12:33:40;;;;;;;10.13;3.37;;;14.40;99.90;;;;;;5046169;28;20198;-84
2021/04/21 12:36:07;;;;;;;13.93;3.93;;;14.40;99.90;;;;;;5046988;28;20267;-79
2021/04/21 12:38:36;;;;;;;12.23;4.17;;;14.60;99.90;;;;;;5055254;28;20286;-81
2021/04/21 12:41:05;;;;;;;11.13;2.63;;;14.40;99.90;;;;;;5065549;28;20607;-80
2021/04/21 12:43:33;;;;;;;11.70;3.20;;;14.30;99.90;;;;;;5056223;28;20234;-84
2021/04/21 12:46:21;;;;;;;13.23;2.87;;;14.10;99.90;;;;;;5046795;28;20210;-80
2021/04/21 12:48:50;;;;;;;12.20;3.80;;;14.40;99.90;;;;;;5047090;28;20904;-85
2021/04/21 12:51:21;;;;;;;17.87;4.03;;;14.60;99.90;;;;;;5045163;28;20208;-80
2021/04/21 12:53:48;;;;;;;11.87;3.03;;;14.60;99.90;;;;;;5044652;28;20205;-81
2021/04/21 12:56:15;;;;;;;11.57;3.10;;;14.60;99.90;;;;;;5046509;28;20222;-82
2021/04/21 12:58:44;;;;;;;12.70;3.67;;;14.30;99.90;;;;;;5045157;28;20313;-79
2021/04/21 13:01:14;;;;;;;9.43;3.03;;;14.10;99.90;;;;;;5045412;28;20198;-81
2021/04/21 13:03:58;;;;;;;13.47;3.27;;;14.00;99.90;;;;;;5044951;28;20225;-79
2021/04/21 13:06:39;;;;;;;10.93;3.23;;;13.90;99.90;;;;;;5045595;28;20202;-78
2021/04/21 13:09:08;;;;;;;14.27;3.73;;;13.90;99.90;;;;;;5046156;28;20250;-82
2021/04/21 13:11:34;;;;;;;14.90;3.90;;;14.20;99.90;;;;;;5043718;28;20647;-79
2021/04/21 13:14:01;;;;;;;11.80;3.23;;;14.30;99.90;;;;;;5046211;28;20206;-80